Time;durP1;ratioP1;P1;durP2;ratioP2;P2;SDS_P1;SDS_P2;PMS_P1;PMS_P2;Temp;Humidity;BMP_temperature;BMP_pressure;BME280_temperature;BME280_humidity;BME280_pressure;Samples;Min_cycle;Max_cycle;Signal;HPM_P1;HPM_P2
2023/10/30 00:03:00;;;;;;;20.13;11.98;;;;;;;9.99;74.21;98024.13;10282531;28;20038;-54
2023/10/30 00:07:58;;;;;;;;;;;;;;;9.99;73.48;98034.50;10278554;28;20134;-53
2023/10/30 00:12:57;;;;;;;29.77;13.10;;;;;;;10.01;74.03;98011.19;10242475;28;19945;-54
2023/10/30 00:17:56;;;;;;;16.30;11.68;;;;;;;9.59;74.59;97972.06;10250033;28;20393;-53
2023/10/30 00:22:55;;;;;;;15.93;10.50;;;;;;;9.92;74.32;98012.00;10250184;28;20038;-53
2023/10/30 00:27:59;;;;;;;15.88;10.68;;;;;;;9.93;74.23;98013.72;10249598;28;20120;-53
2023/10/30 00:32:58;;;;;;;24.55;12.45;;;;;;;9.85;75.02;98012.81;10249614;28;20121;-53
2023/10/30 00:37:57;;;;;;;18.42;10.77;;;;;;;9.84;75.50;98011.97;10249962;28;20050;-53
2023/10/30 00:42:56;;;;;;;16.77;11.70;;;;;;;9.72;75.33;98012.75;10286112;28;20474;-53
2023/10/30 00:47:55;;;;;;;19.65;10.75;;;;;;;9.68;75.08;98003.22;10289474;28;20073;-51
2023/10/30 00:52:54;;;;;;;13.70;9.68;;;;;;;9.66;74.83;97998.88;10290049;28;20065;-53
2023/10/30 00:57:53;;;;;;;17.48;11.35;;;;;;;9.63;75.01;97999.72;10288929;28;20125;-53
2023/10/30 01:02:52;;;;;;;16.80;11.43;;;;;;;9.54;75.08;98020.41;10288553;28;20566;-52
2023/10/30 01:07:51;;;;;;;22.58;13.18;;;;;;;9.37;75.85;98006.44;10282943;28;20153;-53
2023/10/30 01:12:50;;;;;;;17.20;12.43;;;;;;;9.28;75.95;98005.53;10248390;28;20092;-53
2023/10/30 01:17:49;;;;;;;17.10;12.27;;;;;;;9.25;75.57;98008.03;10286306;28;20045;-51
2023/10/30 01:22:49;;;;;;;19.95;13.45;;;;;;;9.19;75.82;98010.59;10287633;28;20121;-50
2023/10/30 01:27:48;;;;;;;22.38;13.88;;;;;;;9.06;75.97;97995.78;10287257;28;20069;-52
2023/10/30 01:32:46;;;;;;;19.55;12.73;;;;;;;8.95;76.86;98003.47;10287618;28;20068;-52
2023/10/30 01:37:45;;;;;;;17.73;11.98;;;;;;;8.94;76.53;98012.94;10287172;28;20157;-52
2023/10/30 01:42:44;;;;;;;22.65;13.65;;;;;;;8.94;76.79;98000.00;10287964;28;20049;-52
2023/10/30 01:47:43;;;;;;;21.75;13.18;;;;;;;8.93;76.92;98005.19;10287288;28;20097;-53
2023/10/30 01:52:44;;;;;;;23.48;16.73;;;;;;;8.94;77.39;98001.72;10286614;28;20034;-51
2023/10/30 01:57:43;;;;;;;22.90;15.00;;;;;;;8.84;78.19;97998.19;10246793;28;20121;-53
2023/10/30 02:02:42;;;;;;;21.70;13.85;;;;;;;8.71;78.38;98015.28;10245869;28;20117;-53
2023/10/30 02:07:41;;;;;;;21.02;15.35;;;;;;;8.71;78.55;98017.88;10250338;28;20080;-51
2023/10/30 02:12:48;;;;;;;20.50;14.70;;;;;;;8.70;78.51;98004.94;10286504;28;20132;-54
2023/10/30 02:17:47;;;;;;;23.67;16.35;;;;;;;8.79;78.46;98009.34;10300714;28;20124;-52
2023/10/30 02:22:46;;;;;;;21.35;14.85;;;;;;;8.70;78.63;98012.69;10285218;28;20034;-53
2023/10/30 02:27:45;;;;;;;20.27;13.70;;;;;;;8.36;79.10;97963.19;10286716;28;20128;-52
2023/10/30 02:32:46;;;;;;;23.52;14.43;;;;;;;8.66;78.82;98016.97;10284980;28;20474;-53
2023/10/30 02:37:45;;;;;;;27.63;15.27;;;;;;;8.61;79.25;98015.19;10284644;28;20501;-52
2023/10/30 02:42:45;;;;;;;19.83;15.02;;;;;;;8.62;79.51;98016.91;10285947;28;20061;-52
2023/10/30 02:47:43;;;;;;;18.98;13.10;;;;;;;8.65;79.39;98017.81;10284693;28;20513;-54
2023/10/30 02:52:42;;;;;;;20.98;15.40;;;;;;;8.55;79.73;97997.00;10284641;28;20715;-53
2023/10/30 02:57:41;;;;;;;20.33;14.65;;;;;;;8.61;79.84;98012.59;10284922;28;20104;-51
2023/10/30 03:02:40;;;;;;;21.42;13.38;;;;;;;8.66;79.22;98011.78;10284534;28;20121;-53
2023/10/30 03:07:39;;;;;;;22.65;15.00;;;;;;;8.63;79.28;98016.94;10279578;28;20133;-54
2023/10/30 03:12:38;;;;;;;20.88;14.40;;;;;;;8.59;79.20;98020.34;10244027;28;20129;-54
2023/10/30 03:17:37;;;;;;;17.55;13.43;;;;;;;8.44;79.77;98021.03;10242981;28;20458;-54
2023/10/30 03:22:36;;;;;;;19.30;13.70;;;;;;;8.39;79.38;98030.47;10243417;28;20119;-54
2023/10/30 03:27:35;;;;;;;19.58;13.43;;;;;;;8.21;79.63;98022.47;10243912;28;20567;-54
2023/10/30 03:32:34;;;;;;;24.10;13.68;;;;;;;8.17;79.20;98033.63;10242530;28;20512;-54
2023/10/30 03:37:33;;;;;;;20.13;13.73;;;;;;;8.16;79.24;98016.38;10254742;28;20396;-54
2023/10/30 03:42:32;;;;;;;20.92;13.50;;;;;;;8.21;79.04;98017.31;10283031;28;20124;-52
2023/10/30 03:47:31;;;;;;;19.50;13.75;;;;;;;8.29;79.33;98016.56;10283061;28;20033;-53
2023/10/30 03:52:30;;;;;;;21.98;14.27;;;;;;;8.26;79.59;98024.25;10290486;28;20128;-54
2023/10/30 03:57:29;;;;;;;19.73;13.13;;;;;;;8.33;79.79;98011.41;10291391;28;20108;-54
2023/10/30 04:02:29;;;;;;;21.17;13.48;;;;;;;8.38;79.98;98010.59;10291497;28;20053;-53
2023/10/30 04:07:28;;;;;;;20.02;13.82;;;;;;;8.22;79.79;97982.84;10287767;28;20512;-54
2023/10/30 04:12:27;;;;;;;22.55;13.52;;;;;;;8.15;79.95;97962.94;10251066;28;20480;-54
2023/10/30 04:17:26;;;;;;;22.73;15.25;;;;;;;8.35;80.01;98004.56;10250178;28;20120;-52
2023/10/30 04:22:25;;;;;;;22.85;15.25;;;;;;;8.33;79.53;98007.09;10289136;28;20050;-52
2023/10/30 04:27:24;;;;;;;25.77;15.63;;;;;;;8.40;79.24;98015.81;10290327;28;20120;-54
2023/10/30 04:32:23;;;;;;;24.05;15.10;;;;;;;8.36;79.09;98008.84;10289725;28;20129;-54
2023/10/30 04:37:22;;;;;;;27.40;15.32;;;;;;;8.36;79.19;98016.63;10289411;28;20037;-51
2023/10/30 04:42:21;;;;;;;27.13;15.25;;;;;;;8.37;78.79;98011.47;10289671;28;20458;-53
2023/10/30 04:47:20;;;;;;;20.05;13.88;;;;;;;8.23;78.60;98019.06;10249391;28;20424;-52
2023/10/30 04:52:19;;;;;;;19.70;13.23;;;;;;;7.93;79.21;98027.28;10248655;28;20134;-53
2023/10/30 04:57:18;;;;;;;21.35;13.00;;;;;;;7.80;78.66;98002.09;10248932;28;20376;-54
2023/10/30 05:02:17;;;;;;;23.52;15.23;;;;;;;7.93;78.71;98031.59;10248130;28;20419;-54
2023/10/30 05:07:16;;;;;;;22.05;14.23;;;;;;;7.83;78.67;98035.75;10249632;28;20149;-54
2023/10/30 05:12:15;;;;;;;29.48;14.80;;;;;;;7.83;78.83;98040.94;10288023;28;20120;-54
2023/10/30 05:17:14;;;;;;;27.98;22.17;;;;;;;7.95;78.18;98033.34;10288477;28;20040;-54
2023/10/30 05:22:13;;;;;;;28.00;16.70;;;;;;;7.36;78.37;97927.44;10288417;28;20128;-56
2023/10/30 05:27:12;;;;;;;32.53;20.00;;;;;;;8.03;78.59;98039.47;10288002;28;20108;-55
2023/10/30 05:32:11;;;;;;;35.03;17.83;;;;;;;7.99;79.19;98042.88;10287616;28;20033;-53
2023/10/30 05:37:10;;;;;;;24.67;16.30;;;;;;;8.15;78.15;98045.66;10286794;28;20489;-53
2023/10/30 05:42:09;;;;;;;24.88;15.68;;;;;;;8.22;77.77;98060.41;10262696;28;20435;-53
2023/10/30 05:47:08;;;;;;;33.90;18.92;;;;;;;8.26;77.81;98073.38;10286850;28;20076;-52
2023/10/30 05:52:08;;;;;;;33.78;19.95;;;;;;;8.43;77.40;98070.16;10284239;28;20471;-52
2023/10/30 05:57:07;;;;;;;37.25;19.67;;;;;;;8.57;77.58;98068.59;10275398;28;20081;-53
2023/10/30 06:02:06;;;;;;;37.17;20.92;;;;;;;8.76;76.98;98074.84;10246194;28;20074;-52
2023/10/30 06:07:05;;;;;;;39.42;22.95;;;;;;;8.89;76.59;98062.94;10274592;28;20060;-53
2023/10/30 06:12:05;;;;;;;34.15;19.80;;;;;;;9.07;77.25;98070.03;10246962;28;20117;-53
2023/10/30 06:17:03;;;;;;;37.28;21.40;;;;;;;9.30;76.84;98065.97;10245901;28;20061;-51
2023/10/30 06:22:03;;;;;;;32.75;19.73;;;;;;;9.51;76.83;98066.97;10272805;28;20045;-51
2023/10/30 06:27:02;;;;;;;40.40;20.60;;;;;;;9.51;75.60;98054.91;10261534;28;20053;-53
2023/10/30 06:32:01;;;;;;;41.60;21.48;;;;;;;9.74;75.08;98059.38;10320517;28;20069;-53
2023/10/30 06:37:00;;;;;;;49.97;20.33;;;;;;;9.91;75.06;98059.50;10289062;28;20117;-54
2023/10/30 06:41:59;;;;;;;43.88;19.42;;;;;;;10.13;74.70;98066.56;10258614;28;20038;-54
2023/10/30 06:46:59;;;;;;;35.40;19.58;;;;;;;10.30;74.37;98077.03;10278864;28;20056;-54
2023/10/30 06:51:57;;;;;;;36.25;19.98;;;;;;;10.49;74.35;98077.13;10282857;28;20245;-55
2023/10/30 06:56:57;;;;;;;27.17;18.60;;;;;;;10.66;73.94;98074.56;10271893;28;20041;-55
2023/10/30 07:01:56;;;;;;;28.60;18.00;;;;;;;10.94;73.92;98068.66;10284607;28;20131;-54
2023/10/30 07:06:55;;;;;;;27.63;17.00;;;;;;;11.24;73.29;98074.75;10281930;28;20072;-54
2023/10/30 07:11:54;;;;;;;38.22;20.65;;;;;;;11.37;73.09;98081.72;10282051;28;20129;-53
2023/10/30 07:16:53;;;;;;;44.67;25.27;;;;;;;11.64;72.80;98080.00;10274889;28;20064;-54
2023/10/30 07:21:52;;;;;;;36.45;21.85;;;;;;;11.91;72.34;98067.84;10269131;28;20141;-55
2023/10/30 07:26:51;;;;;;;38.58;22.88;;;;;;;12.20;71.53;98067.78;10267310;28;20133;-55
2023/10/30 07:31:50;;;;;;;39.70;20.63;;;;;;;12.48;71.16;98058.19;10289139;28;20120;-54
2023/10/30 07:36:49;;;;;;;35.33;21.23;;;;;;;12.56;70.50;98026.94;10259813;28;20128;-54
2023/10/30 07:41:48;;;;;;;26.95;17.00;;;;;;;13.02;70.10;98042.31;10275863;28;20113;-53
2023/10/30 07:46:47;;;;;;;27.13;16.17;;;;;;;13.23;69.50;98047.38;10281167;28;20037;-54
2023/10/30 07:51:46;;;;;;;21.58;13.60;;;;;;;13.52;69.55;98036.72;10278741;28;20212;-54
2023/10/30 07:56:45;;;;;;;;;;;;;;;13.88;69.11;98045.13;10284524;28;20468;-53
2023/10/30 08:01:45;;;;;;;17.15;9.88;;;;;;;14.19;67.87;98031.75;10289852;28;21094;-54
2023/10/30 08:06:44;;;;;;;27.20;8.98;;;;;;;14.39;67.51;98035.03;10289875;28;20077;-53
2023/10/30 08:11:43;;;;;;;37.55;10.00;;;;;;;14.76;66.39;98008.47;10284697;28;20121;-53
2023/10/30 08:16:42;;;;;;;17.38;9.20;;;;;;;15.15;65.88;98040.13;10286406;28;20511;-53
2023/10/30 08:21:41;;;;;;;27.65;8.95;;;;;;;15.57;64.44;98040.34;10286254;28;20548;-52
2023/10/30 08:26:40;;;;;;;26.45;9.02;;;;;;;15.99;63.62;98024.81;10285846;28;20057;-53
2023/10/30 08:31:38;;;;;;;;;;;;;;;16.39;63.02;98021.44;10285201;28;20129;-53
2023/10/30 08:36:37;;;;;;;17.00;9.32;;;;;;;16.64;61.35;98020.94;10293475;28;19949;-58
2023/10/30 08:41:36;;;;;;;;;;;;;;;17.13;59.94;98017.28;10296382;28;20057;-54
2023/10/30 08:46:35;;;;;;;20.60;8.87;;;;;;;17.57;59.04;98012.72;10297344;28;19960;-55
2023/10/30 08:51:41;;;;;;;;;;;;;;;18.13;58.06;98005.16;10290839;28;20060;-55
2023/10/30 08:56:42;;;;;;;21.90;8.18;;;;;;;18.53;55.63;97998.78;10274874;28;19949;-55
2023/10/30 09:01:41;;;;;;;10.65;8.27;;;;;;;19.10;52.59;97988.34;10310120;28;20086;-53
2023/10/30 09:06:42;;;;;;;11.60;7.47;;;;;;;19.58;49.67;97985.03;10297293;28;20129;-54
2023/10/30 09:11:41;;;;;;;9.70;6.57;;;;;;;20.06;49.18;97979.00;10296298;28;20507;-54
2023/10/30 09:16:40;;;;;;;9.55;7.22;;;;;;;20.43;47.06;97977.69;10294905;28;20073;-53
2023/10/30 09:21:39;;;;;;;8.13;6.50;;;;;;;20.76;46.08;97961.50;10267873;28;20129;-53
2023/10/30 09:26:38;;;;;;;13.88;7.13;;;;;;;21.09;45.20;97969.88;10286413;28;20053;-54
2023/10/30 09:31:37;;;;;;;7.65;6.85;;;;;;;21.35;43.67;97958.28;10292972;28;20121;-52
2023/10/30 09:36:36;;;;;;;9.70;6.28;;;;;;;21.48;42.81;97967.41;10295445;28;20026;-54
2023/10/30 09:41:42;;;;;;;8.93;6.20;;;;;;;21.68;42.68;97963.91;10277147;28;20555;-54
2023/10/30 09:46:42;;;;;;;8.40;6.32;;;;;;;22.00;41.34;97943.22;10288223;28;20065;-53
2023/10/30 09:51:43;;;;;;;9.70;6.50;;;;;;;22.21;40.17;97930.81;10290108;28;20083;-55
2023/10/30 09:56:43;;;;;;;7.88;5.95;;;;;;;22.27;39.23;97919.97;10294299;28;20088;-55
2023/10/30 10:01:43;;;;;;;6.90;5.40;;;;;;;22.47;38.74;97913.75;10293741;28;20462;-53
2023/10/30 10:06:44;;;;;;;8.50;5.50;;;;;;;22.59;38.25;97904.38;10294343;28;20147;-53
2023/10/30 10:11:43;;;;;;;9.13;6.03;;;;;;;22.62;37.63;97898.94;10272180;28;20068;-54
2023/10/30 10:16:42;;;;;;;8.10;6.70;;;;;;;22.84;36.35;97888.25;10292553;28;20133;-54
2023/10/30 10:21:51;;;;;;;8.20;7.38;;;;;;;22.89;35.97;97893.31;10277959;28;20542;-54
2023/10/30 10:26:50;;;;;;;7.82;6.43;;;;;;;22.99;35.46;97887.47;10272423;28;20672;-54
2023/10/30 10:31:49;;;;;;;8.90;6.20;;;;;;;23.07;34.90;97884.47;10279470;28;20542;-54
2023/10/30 10:36:48;;;;;;;6.85;5.90;;;;;;;23.29;34.72;97880.75;10287817;28;20575;-54
2023/10/30 10:41:48;;;;;;;7.30;6.20;;;;;;;23.35;33.91;97873.34;10286319;28;20717;-54
2023/10/30 10:46:47;;;;;;;8.30;6.20;;;;;;;23.38;33.62;97867.88;10290412;28;20501;-53
2023/10/30 10:51:47;;;;;;;7.07;6.22;;;;;;;23.15;33.44;97821.41;10289366;28;20037;-54
2023/10/30 10:56:51;;;;;;;7.05;5.85;;;;;;;23.49;33.42;97842.66;10283896;28;20108;-54
2023/10/30 11:01:54;;;;;;;7.32;6.60;;;;;;;23.67;33.20;97846.16;10289688;28;20064;-53
2023/10/30 11:07:01;;;;;;;7.68;6.90;;;;;;;23.77;32.43;97845.59;10289450;28;20736;-54
2023/10/30 11:12:06;;;;;;;7.40;6.70;;;;;;;23.94;31.92;97839.38;10291450;28;20180;-54
2023/10/30 11:17:05;;;;;;;7.15;6.35;;;;;;;24.08;31.70;97829.84;10278944;28;20863;-54
2023/10/30 11:22:04;;;;;;;8.80;7.18;;;;;;;24.09;31.16;97815.63;10291817;28;20084;-54
2023/10/30 11:27:28;;;;;;;8.25;6.50;;;;;;;24.18;31.71;97810.72;10289880;28;20065;-54
2023/10/30 11:32:32;;;;;;;7.50;6.80;;;;;;;24.29;32.14;97810.13;10288524;28;20560;-54
2023/10/30 11:37:32;;;;;;;7.72;6.80;;;;;;;24.36;31.11;97795.56;10291188;28;20072;-54
2023/10/30 11:42:34;;;;;;;8.45;7.00;;;;;;;24.44;31.92;97801.28;10287220;28;20092;-53
2023/10/30 11:47:33;;;;;;;10.45;7.25;;;;;;;24.42;32.22;97781.94;10288289;28;20076;-56
2023/10/30 11:52:32;;;;;;;7.95;7.10;;;;;;;24.49;31.82;97783.31;10288751;28;20038;-55
2023/10/30 11:57:33;;;;;;;9.00;7.10;;;;;;;24.58;31.18;97781.09;10289339;28;20460;-55
2023/10/30 12:02:39;;;;;;;8.07;7.10;;;;;;;24.64;31.24;97770.13;10290425;28;20475;-54
2023/10/30 12:07:38;;;;;;;9.02;7.25;;;;;;;24.81;31.02;97762.03;10292315;28;20491;-55
2023/10/30 12:12:37;;;;;;;9.82;7.60;;;;;;;24.90;30.73;97765.97;10297351;28;20069;-53
2023/10/30 12:17:39;;;;;;;8.88;7.40;;;;;;;24.89;30.62;97743.03;10296840;28;20026;-55
2023/10/30 12:22:42;;;;;;;9.68;7.00;;;;;;;25.11;30.47;97755.88;10297976;28;20070;-54
2023/10/30 12:27:41;;;;;;;7.55;6.80;;;;;;;25.11;30.22;97756.72;10296778;28;20077;-52
2023/10/30 12:32:41;;;;;;;7.70;6.90;;;;;;;25.19;30.19;97740.31;10296467;28;20089;-54
2023/10/30 12:37:41;;;;;;;8.27;6.60;;;;;;;25.29;29.86;97752.13;10314148;28;20065;-54
2023/10/30 12:42:44;;;;;;;8.25;7.55;;;;;;;25.17;30.14;97723.63;10296109;28;20053;-54
2023/10/30 12:47:46;;;;;;;7.40;6.70;;;;;;;25.26;30.11;97736.34;10296872;28;20057;-52
2023/10/30 12:52:45;;;;;;;9.57;6.60;;;;;;;25.26;29.55;97728.38;10296279;28;20069;-55
2023/10/30 12:57:44;;;;;;;9.68;6.78;;;;;;;25.15;29.30;97719.38;10294959;28;20061;-53
2023/10/30 13:02:43;;;;;;;6.90;6.20;;;;;;;25.13;29.06;97713.28;10293988;28;20109;-53
2023/10/30 13:07:42;;;;;;;9.95;6.60;;;;;;;25.10;29.53;97716.97;10296017;28;20757;-54
2023/10/30 13:12:41;;;;;;;8.15;7.25;;;;;;;25.14;29.67;97713.22;10287062;28;20038;-54
2023/10/30 13:17:40;;;;;;;8.68;6.70;;;;;;;25.05;29.50;97708.44;10274506;28;20038;-54
2023/10/30 13:22:39;;;;;;;11.80;6.45;;;;;;;25.10;29.36;97709.88;10295972;28;20073;-54
2023/10/30 13:27:38;;;;;;;9.20;7.35;;;;;;;25.07;29.70;97709.22;10296123;28;20152;-50
2023/10/30 13:32:37;;;;;;;8.65;6.18;;;;;;;25.07;29.34;97709.22;10293464;28;20142;-54
2023/10/30 13:37:38;;;;;;;10.07;7.63;;;;;;;25.04;29.48;97712.06;10296233;28;20065;-55
2023/10/30 13:42:39;;;;;;;7.30;6.47;;;;;;;24.90;29.84;97713.75;10295117;28;20070;-54
2023/10/30 13:47:39;;;;;;;7.80;7.00;;;;;;;24.87;29.61;97705.09;10294945;28;20119;-53
2023/10/30 13:52:43;;;;;;;7.32;6.40;;;;;;;24.79;29.38;97704.69;10294609;28;20478;-53
2023/10/30 13:57:43;;;;;;;8.68;7.35;;;;;;;24.59;30.35;97692.56;10293383;28;20480;-54
2023/10/30 14:02:43;;;;;;;7.45;6.72;;;;;;;24.33;30.38;97665.78;10293299;28;20066;-54
2023/10/30 14:07:42;;;;;;;8.55;7.38;;;;;;;24.44;30.13;97689.88;10295432;28;20077;-53
2023/10/30 14:12:41;;;;;;;10.98;7.93;;;;;;;24.34;30.88;97686.06;10293133;28;20511;-54
2023/10/30 14:17:40;;;;;;;9.68;7.40;;;;;;;24.23;31.76;97696.44;10292989;28;20439;-54
2023/10/30 14:22:40;;;;;;;7.90;7.20;;;;;;;24.02;32.46;97690.53;10307072;28;20084;-53
2023/10/30 14:27:39;;;;;;;11.63;7.88;;;;;;;23.82;32.95;97687.19;10292347;28;20084;-52
2023/10/30 14:32:38;;;;;;;8.07;7.25;;;;;;;23.73;33.43;97695.66;10291903;28;20057;-54
2023/10/30 14:37:37;;;;;;;9.07;8.20;;;;;;;23.56;33.84;97691.28;10292006;28;20034;-53
2023/10/30 14:42:36;;;;;;;11.50;8.73;;;;;;;23.38;34.46;97697.56;10291613;28;20510;-55
2023/10/30 14:47:35;;;;;;;9.05;8.25;;;;;;;23.15;34.55;97696.13;10291728;28;20056;-54
2023/10/30 14:52:34;;;;;;;8.55;7.65;;;;;;;22.99;34.69;97686.34;10292564;28;20068;-54
2023/10/30 14:57:33;;;;;;;14.05;8.15;;;;;;;22.83;35.09;97689.88;10291619;28;20452;-55
2023/10/30 15:02:32;;;;;;;11.48;7.68;;;;;;;22.67;35.88;97695.03;10292115;28;20476;-55
2023/10/30 15:07:31;;;;;;;11.50;8.20;;;;;;;22.33;36.32;97683.53;10290136;28;20073;-53
2023/10/30 15:12:30;;;;;;;10.23;8.50;;;;;;;22.29;37.03;97709.25;10290945;28;20069;-51
2023/10/30 15:17:29;;;;;;;12.25;8.13;;;;;;;22.01;37.57;97701.81;10291221;28;20467;-51
2023/10/30 15:22:30;;;;;;;10.35;7.57;;;;;;;21.76;38.52;97699.47;10289999;28;20560;-52
2023/10/30 15:27:33;;;;;;;11.45;8.07;;;;;;;21.61;39.08;97718.66;10290423;28;20362;-53
2023/10/30 15:32:36;;;;;;;9.70;7.57;;;;;;;21.41;39.52;97728.34;10290369;28;20069;-54
2023/10/30 15:37:35;;;;;;;14.45;7.85;;;;;;;21.18;40.09;97736.41;10280826;28;20124;-51
2023/10/30 15:42:34;;;;;;;12.15;7.65;;;;;;;21.03;40.55;97735.28;10262700;28;20132;-55
2023/10/30 15:47:33;;;;;;;10.38;7.97;;;;;;;20.92;40.70;97751.59;10244536;28;20029;-55
2023/10/30 15:52:33;;;;;;;13.48;7.47;;;;;;;20.78;41.32;97760.09;10246028;28;20070;-54
2023/10/30 15:57:32;;;;;;;12.27;7.47;;;;;;;20.53;41.99;97762.03;10246533;28;20057;-55
2023/10/30 16:02:31;;;;;;;11.23;8.05;;;;;;;20.28;42.43;97755.06;10244749;28;20060;-54
2023/10/30 16:07:30;;;;;;;10.90;8.20;;;;;;;20.10;42.77;97746.13;10263568;28;20065;-53
2023/10/30 16:12:29;;;;;;;7.97;7.10;;;;;;;20.16;43.33;97774.84;10294324;28;20073;-53
2023/10/30 16:17:28;;;;;;;12.20;8.23;;;;;;;19.98;44.19;97783.50;10241652;28;20050;-54
2023/10/30 16:22:27;;;;;;;13.48;7.72;;;;;;;19.90;44.64;97770.59;10241678;28;20488;-53
2023/10/30 16:27:26;;;;;;;14.55;8.70;;;;;;;19.81;44.88;97761.31;10242368;28;20157;-54
2023/10/30 16:32:25;;;;;;;10.55;8.15;;;;;;;19.83;45.53;97785.78;10242117;28;20414;-53
2023/10/30 16:37:24;;;;;;;10.00;8.05;;;;;;;19.77;45.53;97783.41;10269694;28;20026;-54
2023/10/30 16:42:23;;;;;;;9.70;8.13;;;;;;;19.77;45.97;97796.56;10282571;28;20044;-54
2023/10/30 16:47:22;;;;;;;11.18;8.90;;;;;;;19.75;46.16;97795.75;10281565;28;20034;-54
2023/10/30 16:52:21;;;;;;;11.50;8.20;;;;;;;19.65;46.73;97791.75;10281940;28;20074;-55
2023/10/30 16:57:20;;;;;;;10.90;8.30;;;;;;;19.77;46.51;97793.06;10285214;28;20032;-54
2023/10/30 17:02:19;;;;;;;14.07;9.05;;;;;;;19.49;47.04;97766.88;10289434;28;20032;-53
2023/10/30 17:07:18;;;;;;;9.65;8.55;;;;;;;19.51;47.17;97778.19;10288116;28;20046;-54
2023/10/30 17:12:17;;;;;;;11.02;8.85;;;;;;;19.59;46.78;97819.16;10289411;28;20053;-54
2023/10/30 17:17:16;;;;;;;14.13;9.27;;;;;;;19.44;46.97;97814.41;10287898;28;20033;-54
2023/10/30 17:22:15;;;;;;;11.82;9.27;;;;;;;19.35;47.22;97815.59;10288720;28;20116;-53
2023/10/30 17:27:15;;;;;;;13.52;9.50;;;;;;;19.10;46.56;97817.38;10289171;28;20105;-55
2023/10/30 17:32:14;;;;;;;13.85;9.70;;;;;;;18.89;47.11;97822.44;10287679;28;20065;-54
2023/10/30 17:37:13;;;;;;;12.75;9.70;;;;;;;18.80;48.40;97817.47;10261479;28;20042;-54
2023/10/30 17:42:12;;;;;;;15.10;10.32;;;;;;;18.70;49.14;97813.44;10247799;28;20031;-54
2023/10/30 17:47:12;;;;;;;10.32;8.73;;;;;;;18.65;49.91;97810.06;10246873;28;20559;-54
2023/10/30 17:52:11;;;;;;;14.05;9.55;;;;;;;18.55;50.09;97806.88;10247515;28;20117;-54
2023/10/30 17:57:10;;;;;;;13.10;8.80;;;;;;;18.45;50.61;97811.56;10287174;28;20033;-54
2023/10/30 18:02:08;;;;;;;13.85;8.68;;;;;;;18.54;50.58;97805.16;10287290;28;20114;-54
2023/10/30 18:07:07;;;;;;;12.88;9.85;;;;;;;18.52;49.94;97802.56;10286361;28;20042;-54
2023/10/30 18:12:07;;;;;;;17.15;10.55;;;;;;;18.44;49.45;97794.09;10287760;28;20495;-54
2023/10/30 18:17:06;;;;;;;18.75;11.05;;;;;;;18.16;49.96;97792.31;10317894;28;20072;-54
2023/10/30 18:22:05;;;;;;;12.20;10.20;;;;;;;18.13;50.33;97809.97;10285846;28;20025;-54
2023/10/30 18:27:04;;;;;;;16.48;11.40;;;;;;;18.02;51.07;97799.78;10284445;28;20087;-55
2023/10/30 18:32:03;;;;;;;14.43;10.40;;;;;;;17.88;51.08;97799.31;10286241;28;20026;-54
2023/10/30 18:37:04;;;;;;;15.85;9.80;;;;;;;17.76;51.23;97790.91;10261283;28;20576;-54
2023/10/30 18:42:03;;;;;;;12.40;8.82;;;;;;;17.76;51.78;97779.50;10245460;28;20062;-54
2023/10/30 18:47:02;;;;;;;11.65;8.73;;;;;;;17.73;52.45;97780.47;10244952;28;20232;-54
2023/10/30 18:52:01;;;;;;;12.13;9.00;;;;;;;17.82;52.42;97783.75;10245443;28;20563;-55
2023/10/30 18:56:59;;;;;;;;;;;;;;;17.76;52.75;97785.66;10243952;28;20160;-54
2023/10/30 19:01:58;;;;;;;15.57;9.97;;;;;;;17.80;52.88;97778.56;10245089;28;19917;-54
2023/10/30 19:06:57;;;;;;;15.45;9.60;;;;;;;17.83;52.99;97782.84;10244844;28;20512;-55
2023/10/30 19:11:59;;;;;;;13.77;9.07;;;;;;;17.71;53.39;97760.41;10243763;28;20022;-55
2023/10/30 19:16:58;;;;;;;13.10;8.63;;;;;;;17.94;53.36;97786.88;10244488;28;20473;-54
2023/10/30 19:21:58;;;;;;;11.40;9.65;;;;;;;17.73;52.88;97733.22;10243626;28;20400;-54
2023/10/30 19:26:57;;;;;;;14.18;10.02;;;;;;;17.97;52.84;97799.06;10244742;28;20125;-54
2023/10/30 19:31:56;;;;;;;14.07;9.25;;;;;;;17.86;53.28;97790.63;10244085;28;20113;-54
2023/10/30 19:36:55;;;;;;;;;;;;;;;17.86;53.92;97788.00;10267397;28;20383;-54
2023/10/30 19:41:54;;;;;;;13.93;9.73;;;;;;;17.92;53.79;97785.22;10283712;28;19921;-54
2023/10/30 19:46:52;;;;;;;13.43;10.65;;;;;;;17.87;52.27;97784.47;10283881;28;20045;-53
2023/10/30 19:51:51;;;;;;;;;;;;;;;17.25;51.41;97793.19;10284440;28;20038;-54
2023/10/30 19:56:50;;;;;;;13.00;11.20;;;;;;;16.38;52.58;97797.09;10263086;28;19928;-53
2023/10/30 20:01:49;;;;;;;;;;;;;;;15.77;53.35;97773.16;10243129;28;20129;-54
2023/10/30 20:06:48;;;;;;;16.08;10.52;;;;;;;15.63;54.18;97794.38;10242779;28;20009;-53
2023/10/30 20:11:48;;;;;;;18.92;11.80;;;;;;;15.51;54.00;97791.16;10282218;28;20062;-54
2023/10/30 20:16:46;;;;;;;11.98;10.70;;;;;;;15.29;55.45;97809.00;10282582;28;20577;-52
2023/10/30 20:21:45;;;;;;;;;;;;;;;15.19;55.43;97814.41;10283038;28;20545;-54
2023/10/30 20:26:44;;;;;;;13.73;10.75;;;;;;;15.14;56.14;97821.47;10283111;28;20306;-54
2023/10/30 20:31:43;;;;;;;17.65;10.32;;;;;;;15.09;56.08;97823.31;10284813;28;20117;-53
2023/10/30 20:36:42;;;;;;;16.48;10.48;;;;;;;14.90;56.27;97827.13;10268527;28;20030;-53
2023/10/30 20:41:41;;;;;;;17.52;11.60;;;;;;;14.97;56.35;97820.91;10288911;28;20121;-54
2023/10/30 20:46:41;;;;;;;16.75;12.18;;;;;;;14.69;56.67;97789.16;10289977;28;20061;-55
2023/10/30 20:51:40;;;;;;;17.33;11.98;;;;;;;14.81;56.59;97838.59;10288855;28;20076;-53
2023/10/30 20:56:39;;;;;;;;;;;;;;;14.59;57.93;97845.88;10290015;28;20032;-52
2023/10/30 21:01:38;;;;;;;16.65;11.48;;;;;;;14.46;57.57;97841.75;10288937;28;20011;-52
2023/10/30 21:06:37;;;;;;;19.20;11.82;;;;;;;14.36;58.08;97835.81;10288616;28;20141;-53
2023/10/30 21:11:36;;;;;;;;;;;;;;;14.24;58.58;97841.16;10289329;28;20057;-53
2023/10/30 21:16:36;;;;;;;19.60;12.85;;;;;;;13.91;58.92;97806.84;10288978;28;19920;-54
2023/10/30 21:21:35;;;;;;;22.40;13.45;;;;;;;13.97;59.23;97844.16;10288032;28;20079;-53
2023/10/30 21:26:34;;;;;;;27.40;16.77;;;;;;;13.77;60.05;97847.03;10288847;28;20076;-55
2023/10/30 21:31:33;;;;;;;30.23;19.63;;;;;;;13.70;60.21;97849.69;10287990;28;20032;-54
2023/10/30 21:36:32;;;;;;;32.83;19.48;;;;;;;13.66;60.08;97842.81;10267327;28;20040;-53
2023/10/30 21:41:31;;;;;;;;;;;;;;;13.62;60.05;97833.31;10247231;28;20057;-52
2023/10/30 21:46:30;;;;;;;21.88;15.70;;;;;;;13.51;60.39;97829.03;10286952;28;19969;-55
2023/10/30 21:51:29;;;;;;;24.80;14.98;;;;;;;13.46;60.97;97833.44;10287186;28;20104;-55
2023/10/30 21:56:27;;;;;;;24.23;15.48;;;;;;;13.39;61.31;97825.72;10287260;28;20129;-54
2023/10/30 22:01:26;;;;;;;17.83;13.95;;;;;;;13.36;61.42;97809.22;10286790;28;20611;-54
2023/10/30 22:06:25;;;;;;;20.15;14.52;;;;;;;13.36;61.52;97821.41;10287288;28;20420;-54
2023/10/30 22:11:24;;;;;;;19.75;13.25;;;;;;;12.71;62.30;97725.66;10286873;28;20084;-54
2023/10/30 22:16:24;;;;;;;23.88;13.57;;;;;;;13.19;62.91;97820.69;10286201;28;20492;-53
2023/10/30 22:21:22;;;;;;;;;;;;;;;13.15;63.34;97812.91;10286709;28;20176;-53
2023/10/30 22:26:21;;;;;;;14.88;12.88;;;;;;;13.12;63.81;97799.06;10285677;28;20393;-54
2023/10/30 22:31:20;;;;;;;18.23;13.15;;;;;;;13.12;63.60;97805.16;10286343;28;20112;-53
2023/10/30 22:36:20;;;;;;;24.02;14.20;;;;;;;12.82;64.61;97761.19;10298074;28;20030;-55
2023/10/30 22:41:19;;;;;;;20.30;13.30;;;;;;;12.94;64.53;97802.72;10245267;28;20077;-53
2023/10/30 22:46:18;;;;;;;21.80;14.38;;;;;;;12.69;64.28;97804.69;10244528;28;20053;-53
2023/10/30 22:51:17;;;;;;;19.33;12.63;;;;;;;12.59;64.04;97800.44;10245359;28;20034;-53
2023/10/30 22:56:16;;;;;;;20.13;13.07;;;;;;;12.49;63.74;97790.09;10244471;28;20042;-53
2023/10/30 23:01:15;;;;;;;21.40;13.35;;;;;;;12.35;64.24;97776.34;10244566;28;20072;-53
2023/10/30 23:06:13;;;;;;;14.90;12.70;;;;;;;12.26;64.25;97766.81;10243814;28;20050;-54